createdAt,value
2023-05-22T00:01:39.073Z,17.27
2023-05-22T00:04:05.665Z,17.25
2023-05-22T00:06:34.003Z,17.23
2023-05-22T00:09:00.490Z,17.18
2023-05-22T00:11:27.100Z,17.10
2023-05-22T00:13:53.659Z,17.04
2023-05-22T00:16:20.171Z,16.95
2023-05-22T00:18:47.504Z,16.87
2023-05-22T00:21:14.314Z,16.87
2023-05-22T00:23:41.483Z,16.82
2023-05-22T00:26:08.049Z,16.90
2023-05-22T00:28:34.497Z,16.94
2023-05-22T00:31:01.041Z,17.00
2023-05-22T00:33:27.550Z,17.10
2023-05-22T00:35:54.021Z,17.08
2023-05-22T00:38:32.429Z,17.08
2023-05-22T00:41:03.647Z,17.06
2023-05-22T00:43:30.799Z,17.03
2023-05-22T00:45:57.474Z,17.09
2023-05-22T00:48:24.472Z,17.16
2023-05-22T00:50:53.511Z,17.12
2023-05-22T00:53:21.699Z,17.03
2023-05-22T00:55:48.588Z,17.08
2023-05-22T00:58:17.587Z,17.07
2023-05-22T01:00:45.177Z,17.09
2023-05-22T01:03:11.904Z,16.97
2023-05-22T01:05:39.998Z,16.85
2023-05-22T01:08:08.439Z,16.80
2023-05-22T01:10:37.636Z,16.82
2023-05-22T01:13:23.290Z,16.82
2023-05-22T01:15:57.275Z,16.84
2023-05-22T01:18:32.973Z,16.91
2023-05-22T01:21:36.889Z,16.88
2023-05-22T01:24:13.788Z,16.85
2023-05-22T01:26:55.238Z,16.82
2023-05-22T01:29:27.791Z,16.75
2023-05-22T01:31:57.693Z,16.84
2023-05-22T01:34:25.750Z,16.80
2023-05-22T01:36:53.328Z,16.79
2023-05-22T01:39:20.540Z,16.79
2023-05-22T01:41:47.291Z,16.86
2023-05-22T01:44:13.752Z,16.87
2023-05-22T01:46:41.043Z,16.82
2023-05-22T01:49:09.035Z,16.80
2023-05-22T01:51:50.752Z,16.85
2023-05-22T01:54:26.959Z,16.81
2023-05-22T01:57:04.157Z,16.82
2023-05-22T01:59:38.549Z,16.80
2023-05-22T02:02:09.809Z,16.77
2023-05-22T02:04:42.252Z,16.76
2023-05-22T02:07:12.486Z,16.76
2023-05-22T02:09:41.015Z,16.80
2023-05-22T02:12:08.360Z,16.78
2023-05-22T02:14:35.452Z,16.79
2023-05-22T02:17:03.326Z,16.77
2023-05-22T02:19:29.898Z,16.76
2023-05-22T02:21:56.487Z,16.74
2023-05-22T02:24:23.644Z,16.68
2023-05-22T02:26:50.132Z,16.64
2023-05-22T02:29:16.657Z,16.59
2023-05-22T02:31:43.401Z,16.61
2023-05-22T02:34:10.020Z,16.61
2023-05-22T02:36:37.298Z,16.62
2023-05-22T02:39:05.097Z,16.62
2023-05-22T02:41:31.603Z,16.66
2023-05-22T02:43:58.122Z,16.59
2023-05-22T02:46:24.598Z,16.59
2023-05-22T02:48:51.054Z,16.57
2023-05-22T02:51:17.619Z,16.57
2023-05-22T02:53:44.056Z,16.64
2023-05-22T02:56:11.995Z,16.58
2023-05-22T02:58:39.523Z,16.57
2023-05-22T03:01:12.045Z,16.45
2023-05-22T03:03:38.607Z,16.40
2023-05-22T03:06:05.307Z,16.36
2023-05-22T03:08:32.061Z,16.29
2023-05-22T03:11:01.859Z,16.24
2023-05-22T03:13:28.340Z,16.20
2023-05-22T03:15:54.910Z,16.19
2023-05-22T03:18:21.856Z,16.16
2023-05-22T03:20:48.416Z,16.17
2023-05-22T03:23:14.863Z,16.22
2023-05-22T03:25:41.444Z,16.25
2023-05-22T03:28:07.936Z,16.19
2023-05-22T03:30:34.381Z,16.20
2023-05-22T03:33:00.872Z,16.28
2023-05-22T03:35:27.348Z,16.23
2023-05-22T03:37:53.784Z,16.22
2023-05-22T03:40:20.308Z,16.23
2023-05-22T03:42:46.792Z,16.16
2023-05-22T03:45:13.276Z,16.09
2023-05-22T03:47:39.769Z,16.02
2023-05-22T03:50:06.578Z,16.00
2023-05-22T03:52:33.152Z,15.98
2023-05-22T03:55:00.011Z,15.94
2023-05-22T03:57:26.503Z,15.93
2023-05-22T03:59:53.011Z,15.96
2023-05-22T04:02:20.216Z,15.89
2023-05-22T04:04:47.035Z,15.85
2023-05-22T04:07:13.570Z,15.83
2023-05-22T04:09:41.163Z,15.83
2023-05-22T04:12:08.087Z,15.85
2023-05-22T04:14:34.615Z,15.91
2023-05-22T04:17:01.092Z,15.89
2023-05-22T04:19:28.151Z,15.91
2023-05-22T04:21:54.879Z,15.91
2023-05-22T04:24:23.113Z,15.86
2023-05-22T04:26:49.960Z,15.88
2023-05-22T04:29:16.630Z,15.86
2023-05-22T04:31:43.545Z,15.93
2023-05-22T04:34:16.052Z,15.92
2023-05-22T04:36:44.947Z,15.90
2023-05-22T04:39:11.502Z,15.92
2023-05-22T04:41:39.067Z,15.86
2023-05-22T04:44:05.714Z,15.78
2023-05-22T04:46:34.430Z,15.73
2023-05-22T04:49:01.918Z,15.75
2023-05-22T04:51:28.859Z,15.78
2023-05-22T04:53:55.778Z,15.79
2023-05-22T04:56:35.256Z,15.73
2023-05-22T04:59:04.661Z,15.69
2023-05-22T05:01:33.075Z,15.75
2023-05-22T05:04:00.137Z,15.79
2023-05-22T05:06:27.299Z,15.83
2023-05-22T05:08:54.112Z,15.88
2023-05-22T05:11:21.584Z,15.89
2023-05-22T05:13:48.036Z,15.91
2023-05-22T05:16:14.529Z,15.92
2023-05-22T05:18:40.981Z,15.91
2023-05-22T05:21:11.248Z,15.91
2023-05-22T05:23:37.720Z,16.00
2023-05-22T05:26:04.262Z,16.13
2023-05-22T05:28:30.812Z,16.27
2023-05-22T05:30:57.879Z,16.41
2023-05-22T05:33:24.386Z,16.57
2023-05-22T05:35:52.551Z,16.67
2023-05-22T05:38:19.578Z,16.75
2023-05-22T05:40:46.946Z,16.78
2023-05-22T05:43:16.478Z,16.79
2023-05-22T05:45:43.752Z,16.86
2023-05-22T05:48:10.507Z,16.92
2023-05-22T05:50:37.318Z,16.91
2023-05-22T05:53:03.909Z,16.92
2023-05-22T05:55:32.294Z,16.95
2023-05-22T05:58:00.456Z,16.95
2023-05-22T06:00:27.448Z,17.01
2023-05-22T06:02:54.008Z,17.07
2023-05-22T06:05:21.293Z,17.08
2023-05-22T06:07:48.561Z,17.11
2023-05-22T06:10:15.508Z,17.10
2023-05-22T06:12:42.097Z,17.16
2023-05-22T06:15:08.862Z,17.21
2023-05-22T06:17:35.713Z,17.24
2023-05-22T06:20:02.175Z,17.27
2023-05-22T06:22:29.196Z,17.23
2023-05-22T06:24:55.841Z,17.24
2023-05-22T06:27:22.887Z,17.28
2023-05-22T06:29:49.935Z,17.33
2023-05-22T06:32:16.823Z,17.41
2023-05-22T06:34:45.485Z,17.46
2023-05-22T06:37:12.685Z,17.53
2023-05-22T06:39:40.219Z,17.62
2023-05-22T06:42:06.906Z,17.68
2023-05-22T06:44:33.624Z,17.72
2023-05-22T06:47:00.210Z,17.76
2023-05-22T06:49:27.870Z,17.84
2023-05-22T06:51:54.886Z,17.88
2023-05-22T06:54:21.530Z,17.97
2023-05-22T06:56:48.013Z,18.08
2023-05-22T06:59:14.494Z,18.11
2023-05-22T07:01:41.378Z,18.16
2023-05-22T07:04:09.084Z,18.19
2023-05-22T07:06:39.038Z,18.21
2023-05-22T07:09:06.152Z,18.23
2023-05-22T07:11:32.798Z,18.30
2023-05-22T07:13:59.240Z,18.43
2023-05-22T07:16:26.027Z,18.52
2023-05-22T07:18:53.183Z,18.55
2023-05-22T07:21:19.654Z,18.57
2023-05-22T07:23:46.160Z,18.56
2023-05-22T07:26:12.633Z,18.63
2023-05-22T07:28:39.115Z,18.72
2023-05-22T07:31:07.774Z,18.75
2023-05-22T07:33:34.327Z,18.82
2023-05-22T07:36:01.011Z,18.84
2023-05-22T07:38:27.514Z,18.86
2023-05-22T07:40:54.024Z,18.91
2023-05-22T07:43:21.306Z,18.97
2023-05-22T07:45:47.823Z,19.00
2023-05-22T07:48:14.476Z,19.02
2023-05-22T07:50:44.806Z,19.08
2023-05-22T07:53:12.079Z,19.22
2023-05-22T07:55:39.572Z,19.38
2023-05-22T07:58:06.262Z,19.53
2023-05-22T08:00:32.798Z,19.52
2023-05-22T08:02:59.417Z,19.55
2023-05-22T08:05:26.086Z,19.60
2023-05-22T08:07:52.713Z,19.70
2023-05-22T08:10:19.501Z,19.83
2023-05-22T08:12:46.106Z,19.90
2023-05-22T08:15:12.731Z,20.02
2023-05-22T08:17:39.269Z,20.23
2023-05-22T08:20:07.040Z,20.30
2023-05-22T08:22:34.252Z,20.39
2023-05-22T08:25:00.895Z,20.46
2023-05-22T08:27:27.379Z,20.59
2023-05-22T08:29:53.820Z,20.70
2023-05-22T08:32:20.411Z,20.72
2023-05-22T08:34:47.979Z,20.84
2023-05-22T08:37:15.074Z,20.94
2023-05-22T08:39:41.633Z,21.07
2023-05-22T08:42:08.282Z,21.24
2023-05-22T08:44:35.074Z,21.41
2023-05-22T08:47:04.109Z,21.57
2023-05-22T08:49:30.862Z,21.59
2023-05-22T08:52:03.635Z,21.65
2023-05-22T08:54:32.082Z,21.71
2023-05-22T08:56:58.707Z,21.72
2023-05-22T08:59:25.424Z,21.76
2023-05-22T09:01:52.750Z,21.86
2023-05-22T09:04:23.625Z,22.06
2023-05-22T09:06:50.683Z,22.11
2023-05-22T09:09:17.349Z,22.28
2023-05-22T09:11:44.214Z,22.41
2023-05-22T09:14:11.616Z,22.39
2023-05-22T09:16:48.339Z,22.52
2023-05-22T09:19:15.850Z,22.68
2023-05-22T09:21:44.292Z,22.76
2023-05-22T09:24:11.405Z,22.73
2023-05-22T09:26:41.009Z,22.94
2023-05-22T09:29:08.133Z,23.17
2023-05-22T09:31:44.805Z,23.28
2023-05-22T09:34:14.243Z,23.25
2023-05-22T09:36:41.746Z,23.20
2023-05-22T09:39:08.318Z,23.17
2023-05-22T09:41:38.130Z,23.34
2023-05-22T09:44:26.790Z,23.30
2023-05-22T09:46:54.571Z,23.29
2023-05-22T09:49:21.350Z,23.37
2023-05-22T09:51:49.658Z,23.61
2023-05-22T09:54:17.999Z,23.55
2023-05-22T09:56:48.525Z,23.62
2023-05-22T09:59:22.121Z,23.80
2023-05-22T10:01:50.366Z,24.04
2023-05-22T10:04:18.558Z,24.20
2023-05-22T10:06:51.002Z,24.21
2023-05-22T10:09:21.441Z,24.08
2023-05-22T10:11:55.291Z,23.99
2023-05-22T10:14:22.790Z,24.19
2023-05-22T10:16:49.932Z,24.31
2023-05-22T10:19:17.747Z,24.25
2023-05-22T10:21:47.276Z,24.18
2023-05-22T10:24:14.669Z,24.37
2023-05-22T10:26:42.839Z,24.21
2023-05-22T10:29:17.926Z,24.52
2023-05-22T10:31:57.971Z,24.60
2023-05-22T10:34:39.798Z,24.42
2023-05-22T10:37:30.262Z,24.43
2023-05-22T10:40:05.206Z,24.61
2023-05-22T10:42:32.021Z,24.70
2023-05-22T10:45:11.250Z,24.68
2023-05-22T10:47:37.986Z,24.89
2023-05-22T10:50:11.045Z,24.95
2023-05-22T10:52:39.489Z,24.76
2023-05-22T10:55:10.707Z,24.82
2023-05-22T10:57:39.492Z,24.89
2023-05-22T11:00:10.315Z,24.93
2023-05-22T11:02:40.947Z,25.08
2023-05-22T11:05:22.987Z,25.10
2023-05-22T11:07:49.509Z,24.88
2023-05-22T11:10:46.040Z,24.76
2023-05-22T11:13:12.570Z,24.98
2023-05-22T11:15:45.161Z,25.22
2023-05-22T11:18:14.311Z,25.19
2023-05-22T11:20:41.445Z,25.08
2023-05-22T11:23:08.869Z,25.13
2023-05-22T11:25:37.580Z,25.26
2023-05-22T11:28:06.341Z,25.00
2023-05-22T11:30:34.206Z,24.67
2023-05-22T11:33:02.184Z,24.98
2023-05-22T11:35:29.364Z,25.10
2023-05-22T11:37:58.922Z,25.23
2023-05-22T11:40:29.330Z,25.11
2023-05-22T11:42:56.746Z,25.19
2023-05-22T11:45:23.661Z,25.04
2023-05-22T11:47:50.491Z,25.11
2023-05-22T11:50:25.921Z,25.04
2023-05-22T11:53:01.681Z,25.32
2023-05-22T11:55:28.139Z,25.23
2023-05-22T11:57:55.877Z,25.33
2023-05-22T12:00:22.483Z,25.54
2023-05-22T12:02:49.100Z,25.29
2023-05-22T12:05:16.505Z,25.17
2023-05-22T12:07:43.328Z,25.17
2023-05-22T12:10:11.028Z,25.34
2023-05-22T12:12:37.982Z,25.17
2023-05-22T12:15:08.226Z,25.18
2023-05-22T12:17:37.811Z,25.46
2023-05-22T12:20:05.484Z,25.38
2023-05-22T12:22:31.974Z,25.09
2023-05-22T12:24:58.474Z,25.15
2023-05-22T12:27:32.685Z,25.39
2023-05-22T12:30:08.124Z,25.40
2023-05-22T12:32:34.603Z,25.40
2023-05-22T12:35:01.040Z,25.30
2023-05-22T12:37:28.091Z,25.20
2023-05-22T12:39:59.210Z,25.22
2023-05-22T12:42:26.345Z,25.02
2023-05-22T12:44:54.478Z,24.84
2023-05-22T12:47:23.275Z,24.77
2023-05-22T12:49:49.856Z,24.90
2023-05-22T12:52:16.398Z,24.98
2023-05-22T12:54:43.069Z,25.15
2023-05-22T12:57:09.834Z,25.27
2023-05-22T12:59:37.267Z,25.01
2023-05-22T13:02:07.052Z,25.00
2023-05-22T13:04:33.766Z,25.32
2023-05-22T13:07:00.462Z,25.44
2023-05-22T13:09:27.027Z,25.17
2023-05-22T13:11:53.499Z,25.04
2023-05-22T13:14:20.067Z,24.88
2023-05-22T13:16:46.583Z,25.03
2023-05-22T13:19:13.202Z,24.96
2023-05-22T13:21:40.978Z,25.07
2023-05-22T13:24:08.381Z,25.06
2023-05-22T13:26:34.874Z,25.04
2023-05-22T13:29:01.380Z,25.12
2023-05-22T13:31:28.174Z,25.32
2023-05-22T13:33:54.817Z,25.48
2023-05-22T13:36:21.399Z,25.31
2023-05-22T13:38:47.958Z,25.11
2023-05-22T13:41:15.631Z,25.09
2023-05-22T13:43:42.130Z,25.07
2023-05-22T13:46:08.658Z,25.17
2023-05-22T13:48:35.547Z,25.32
2023-05-22T13:51:02.021Z,25.39
2023-05-22T13:53:28.482Z,25.42
2023-05-22T13:55:55.255Z,25.50
2023-05-22T13:58:21.756Z,25.45
2023-05-22T14:00:48.250Z,25.36
2023-05-22T14:03:17.829Z,25.29
2023-05-22T14:05:45.104Z,25.22
2023-05-22T14:08:11.740Z,25.29
2023-05-22T14:10:38.808Z,25.41
2023-05-22T14:13:05.883Z,25.42
2023-05-22T14:15:32.321Z,25.37
2023-05-22T14:17:58.916Z,25.35
2023-05-22T14:20:25.499Z,25.42
2023-05-22T14:22:57.810Z,25.32
2023-05-22T14:25:26.152Z,25.24
2023-05-22T14:27:53.138Z,25.23
2023-05-22T14:30:19.639Z,25.15
2023-05-22T14:32:46.856Z,25.21
2023-05-22T14:35:13.550Z,25.28
2023-05-22T14:37:40.084Z,25.48
2023-05-22T14:40:07.381Z,25.65
2023-05-22T14:42:34.011Z,25.77
2023-05-22T14:45:04.415Z,25.79
2023-05-22T14:47:30.979Z,25.62
2023-05-22T14:50:03.106Z,25.60
2023-05-22T14:52:44.640Z,25.40
2023-05-22T14:55:11.407Z,25.49
2023-05-22T14:57:38.345Z,25.51
2023-05-22T15:00:09.833Z,25.61
2023-05-22T15:02:37.453Z,25.62
2023-05-22T15:05:04.764Z,25.51
2023-05-22T15:07:43.063Z,25.44
2023-05-22T15:10:12.449Z,25.46
2023-05-22T15:12:39.444Z,25.48
2023-05-22T15:15:09.466Z,25.36
2023-05-22T15:17:36.124Z,25.34
2023-05-22T15:20:03.702Z,25.20
2023-05-22T15:22:30.756Z,25.30
2023-05-22T15:25:09.437Z,25.36
2023-05-22T15:27:36.148Z,25.36
2023-05-22T15:30:04.251Z,25.46
2023-05-22T15:32:33.796Z,25.43
2023-05-22T15:35:00.683Z,25.49
2023-05-22T15:37:29.680Z,25.36
2023-05-22T15:39:57.614Z,25.29
2023-05-22T15:42:24.555Z,25.22
2023-05-22T15:44:51.163Z,25.18
2023-05-22T15:47:17.786Z,25.13
2023-05-22T15:49:44.329Z,25.31
2023-05-22T15:52:10.806Z,25.38
2023-05-22T15:54:37.259Z,25.42
2023-05-22T15:57:03.936Z,25.29
2023-05-22T15:59:30.492Z,25.30
2023-05-22T16:01:56.926Z,25.39
2023-05-22T16:04:23.384Z,25.38
2023-05-22T16:06:50.911Z,25.25
2023-05-22T16:09:19.344Z,25.32
2023-05-22T16:11:45.816Z,25.40
2023-05-22T16:14:12.316Z,25.22
2023-05-22T16:16:38.992Z,25.19
2023-05-22T16:19:05.788Z,25.15
2023-05-22T16:21:32.277Z,25.16
2023-05-22T16:23:58.813Z,25.22
2023-05-22T16:26:25.262Z,25.24
2023-05-22T16:28:51.725Z,25.22
2023-05-22T16:31:19.862Z,25.22
2023-05-22T16:33:46.476Z,25.18
2023-05-22T16:36:13.032Z,25.20
2023-05-22T16:38:39.500Z,25.18
2023-05-22T16:41:05.961Z,25.20
2023-05-22T16:43:32.431Z,25.19
2023-05-22T16:45:58.916Z,25.16
2023-05-22T16:48:25.480Z,25.11
2023-05-22T16:50:52.015Z,25.11
2023-05-22T16:53:18.560Z,25.03
2023-05-22T16:55:45.089Z,25.03
2023-05-22T16:58:12.597Z,25.05
2023-05-22T17:00:40.158Z,25.04
2023-05-22T17:03:08.224Z,25.01
2023-05-22T17:05:35.219Z,25.01
2023-05-22T17:08:01.811Z,24.97
2023-05-22T17:10:28.369Z,24.93
2023-05-22T17:12:58.387Z,24.86
2023-05-22T17:15:24.906Z,24.83
2023-05-22T17:17:51.646Z,24.83
2023-05-22T17:20:18.980Z,24.78
2023-05-22T17:22:45.526Z,24.71
2023-05-22T17:25:12.048Z,24.66
2023-05-22T17:27:38.536Z,24.65
2023-05-22T17:30:06.931Z,24.60
2023-05-22T17:32:34.544Z,24.58
2023-05-22T17:35:01.972Z,24.57
2023-05-22T17:37:28.423Z,24.55
2023-05-22T17:39:54.883Z,24.50
2023-05-22T17:42:21.445Z,24.47
2023-05-22T17:44:47.964Z,24.46
2023-05-22T17:47:14.395Z,24.46
2023-05-22T17:49:40.858Z,24.45
2023-05-22T17:52:08.626Z,24.41
2023-05-22T17:54:35.938Z,24.35
2023-05-22T17:57:06.134Z,24.30
2023-05-22T17:59:33.251Z,24.22
2023-05-22T18:01:59.800Z,24.19
2023-05-22T18:04:26.353Z,24.14
2023-05-22T18:06:52.814Z,24.09
2023-05-22T18:09:19.306Z,24.04
2023-05-22T18:11:45.901Z,23.99
2023-05-22T18:14:12.618Z,24.00
2023-05-22T18:16:39.144Z,23.98
2023-05-22T18:19:05.732Z,23.90
2023-05-22T18:21:32.309Z,23.84
2023-05-22T18:23:59.012Z,23.76
2023-05-22T18:26:26.731Z,23.70
2023-05-22T18:28:53.315Z,23.64
2023-05-22T18:31:19.969Z,23.57
2023-05-22T18:33:46.622Z,23.52
2023-05-22T18:36:18.744Z,23.50
2023-05-22T18:38:48.845Z,23.44
2023-05-22T18:41:15.864Z,23.36
2023-05-22T18:43:43.224Z,23.30
2023-05-22T18:46:12.825Z,23.21
2023-05-22T18:48:39.452Z,23.11
2023-05-22T18:51:06.054Z,23.06
2023-05-22T18:53:32.529Z,23.01
2023-05-22T18:55:59.028Z,22.99
2023-05-22T18:58:25.714Z,22.96
2023-05-22T19:00:55.660Z,22.92
2023-05-22T19:03:22.436Z,22.92
2023-05-22T19:05:49.069Z,22.84
2023-05-22T19:08:15.738Z,22.77
2023-05-22T19:10:42.655Z,22.75
2023-05-22T19:13:09.255Z,22.69
2023-05-22T19:15:35.800Z,22.59
2023-05-22T19:18:02.315Z,22.50
2023-05-22T19:20:28.854Z,22.45
2023-05-22T19:22:56.294Z,22.45
2023-05-22T19:25:22.789Z,22.45
2023-05-22T19:27:49.346Z,22.42
2023-05-22T19:30:16.494Z,22.31
2023-05-22T19:32:43.696Z,22.23
2023-05-22T19:35:11.349Z,22.20
2023-05-22T19:37:38.117Z,22.21
2023-05-22T19:40:05.415Z,22.20
2023-05-22T19:42:31.870Z,22.07
2023-05-22T19:44:59.235Z,21.87
2023-05-22T19:47:25.789Z,21.76
2023-05-22T19:49:52.294Z,21.68
2023-05-22T19:52:18.736Z,21.66
2023-05-22T19:54:45.266Z,21.71
2023-05-22T19:57:11.716Z,21.79
2023-05-22T19:59:38.198Z,21.77
2023-05-22T20:02:04.944Z,21.67
2023-05-22T20:04:31.680Z,21.66
2023-05-22T20:07:02.157Z,21.64
2023-05-22T20:09:28.742Z,21.64
2023-05-22T20:11:55.287Z,21.61
2023-05-22T20:14:21.764Z,21.58
2023-05-22T20:16:48.330Z,21.58
2023-05-22T20:19:15.020Z,21.50
2023-05-22T20:21:44.994Z,21.44
2023-05-22T20:24:25.363Z,21.43
2023-05-22T20:26:52.961Z,21.46
2023-05-22T20:29:19.973Z,21.46
2023-05-22T20:31:46.589Z,21.42
2023-05-22T20:34:13.116Z,21.43
2023-05-22T20:36:40.842Z,21.36
2023-05-22T20:39:07.626Z,21.25
2023-05-22T20:41:34.640Z,21.16
2023-05-22T20:44:02.626Z,21.05
2023-05-22T20:46:29.922Z,21.00
2023-05-22T20:48:58.496Z,20.91
2023-05-22T20:51:32.741Z,20.81
2023-05-22T20:54:00.031Z,20.77
2023-05-22T20:56:26.996Z,20.71
2023-05-22T20:58:56.848Z,20.68
2023-05-22T21:01:24.919Z,20.69
2023-05-22T21:03:52.080Z,20.59
2023-05-22T21:06:19.265Z,20.53
2023-05-22T21:08:46.012Z,20.58
2023-05-22T21:11:15.802Z,20.53
2023-05-22T21:13:42.703Z,20.55
2023-05-22T21:16:10.413Z,20.51
2023-05-22T21:18:37.936Z,20.52
2023-05-22T21:21:05.007Z,20.56
2023-05-22T21:23:31.714Z,20.52
2023-05-22T21:25:58.612Z,20.50
2023-05-22T21:28:25.537Z,20.50
2023-05-22T21:30:52.183Z,20.53
2023-05-22T21:33:18.644Z,20.54
2023-05-22T21:35:45.688Z,20.51
2023-05-22T21:38:13.042Z,20.45
2023-05-22T21:40:42.497Z,20.49
2023-05-22T21:43:09.275Z,20.42
2023-05-22T21:45:38.445Z,20.37
2023-05-22T21:48:05.832Z,20.30
2023-05-22T21:50:32.825Z,20.31
2023-05-22T21:52:59.441Z,20.29
2023-05-22T21:55:26.334Z,20.24
2023-05-22T21:57:53.527Z,20.19
2023-05-22T22:00:20.248Z,20.17
2023-05-22T22:02:47.258Z,20.12
2023-05-22T22:05:17.296Z,20.05
2023-05-22T22:07:43.909Z,20.02
2023-05-22T22:10:11.782Z,20.02
2023-05-22T22:12:38.966Z,19.80
2023-05-22T22:15:08.739Z,19.73
2023-05-22T22:17:35.700Z,19.73
2023-05-22T22:20:03.754Z,19.74
2023-05-22T22:22:31.106Z,19.75
2023-05-22T22:24:57.853Z,19.85
2023-05-22T22:27:24.686Z,19.89
2023-05-22T22:29:51.127Z,19.81
2023-05-22T22:35:01.817Z,19.46
2023-05-22T22:37:28.369Z,19.28
2023-05-22T22:39:55.209Z,19.14
2023-05-22T22:42:21.748Z,19.26
2023-05-22T22:44:48.173Z,19.34
2023-05-22T22:47:14.603Z,19.36
2023-05-22T22:49:41.050Z,19.41
2023-05-22T22:52:07.579Z,19.47
2023-05-22T22:54:34.306Z,19.44
2023-05-22T22:57:00.855Z,19.44
2023-05-22T22:59:27.296Z,19.40
2023-05-22T23:01:53.945Z,19.29
2023-05-22T23:04:20.592Z,19.25
2023-05-22T23:06:47.091Z,19.26
2023-05-22T23:09:14.471Z,19.24
2023-05-22T23:11:40.928Z,19.18
2023-05-22T23:14:08.408Z,19.20
2023-05-22T23:16:35.952Z,19.20
2023-05-22T23:19:05.718Z,19.11
2023-05-22T23:21:33.190Z,19.00
2023-05-22T23:24:00.856Z,18.95
2023-05-22T23:26:28.116Z,18.91
2023-05-22T23:28:54.526Z,18.79
2023-05-22T23:31:25.749Z,18.64
2023-05-22T23:33:52.984Z,18.47
2023-05-22T23:36:19.462Z,18.47
2023-05-22T23:38:49.028Z,18.48
2023-05-22T23:41:17.341Z,18.52
2023-05-22T23:43:44.584Z,18.51
2023-05-22T23:46:14.625Z,18.55
2023-05-22T23:48:42.217Z,18.58
2023-05-22T23:51:14.117Z,18.67
2023-05-22T23:53:41.873Z,18.67
2023-05-22T23:56:09.056Z,18.67
2023-05-22T23:58:35.701Z,18.66
